Time;durP1;ratioP1;P1;durP2;ratioP2;P2;SDS_P1;SDS_P2;PMS_P1;PMS_P2;Temp;Humidity;BMP_temperature;BMP_pressure;BME280_temperature;BME280_humidity;BME280_pressure;Samples;Min_cycle;Max_cycle;Signal;HPM_P1;HPM_P2
2022/11/23 00:01:22;;;;;;;3.00;0.95;;;8.40;99.90;;;;;;5076692;28;20750;-69
2022/11/23 00:03:54;;;;;;;6.03;1.83;;;8.40;99.90;;;;;;5081510;28;20750;-70
2022/11/23 00:06:21;;;;;;;2.70;1.10;;;8.50;99.90;;;;;;5070380;28;20382;-69
2022/11/23 00:08:48;;;;;;;2.63;0.90;;;8.50;99.90;;;;;;5078436;28;20399;-69
2022/11/23 00:11:14;;;;;;;3.75;1.10;;;8.50;99.90;;;;;;5083858;28;20394;-69
2022/11/23 00:13:40;;;;;;;2.67;1.20;;;8.50;99.90;;;;;;5085885;28;20405;-69
2022/11/23 00:16:07;;;;;;;3.35;1.30;;;8.50;99.90;;;;;;5076354;28;20933;-69
2022/11/23 00:18:33;;;;;;;4.00;1.42;;;8.50;99.90;;;;;;5079504;28;20395;-69
2022/11/23 00:20:58;;;;;;;3.70;1.23;;;8.50;99.90;;;;;;5079955;28;20405;-69
2022/11/23 00:23:24;;;;;;;2.70;1.10;;;8.40;99.90;;;;;;5087539;28;20392;-70
2022/11/23 00:25:50;;;;;;;2.60;1.00;;;8.40;99.90;;;;;;5075855;28;20394;-68
2022/11/23 00:28:15;;;;;;;3.90;1.00;;;8.40;99.90;;;;;;5079725;28;20405;-70
2022/11/23 00:30:41;;;;;;;2.90;1.15;;;8.40;99.90;;;;;;5071952;28;20948;-70
2022/11/23 00:33:06;;;;;;;2.15;1.10;;;8.30;99.90;;;;;;5088111;28;20412;-70
2022/11/23 00:35:32;;;;;;;2.78;1.02;;;8.30;99.90;;;;;;5079114;28;20399;-68
2022/11/23 00:37:57;;;;;;;1.73;0.90;;;8.20;99.90;;;;;;5082959;28;20482;-68
2022/11/23 00:40:23;;;;;;;2.30;1.00;;;8.20;99.90;;;;;;5076709;28;20408;-69
2022/11/23 00:42:49;;;;;;;3.20;1.20;;;8.30;99.90;;;;;;5078929;28;20412;-68
2022/11/23 00:45:14;;;;;;;1.90;0.90;;;8.40;99.90;;;;;;5080308;28;20481;-69
2022/11/23 00:47:40;;;;;;;2.40;1.20;;;8.40;99.90;;;;;;5072760;28;20491;-68
2022/11/23 00:50:06;;;;;;;5.00;1.27;;;8.40;99.90;;;;;;5078840;28;20486;-69
2022/11/23 00:52:31;;;;;;;1.90;0.80;;;8.30;99.90;;;;;;5081275;28;20411;-68
2022/11/23 00:54:57;;;;;;;1.50;0.80;;;8.30;99.90;;;;;;5084647;28;21006;-69
2022/11/23 00:57:22;;;;;;;3.13;0.97;;;8.30;99.90;;;;;;5091072;28;20406;-69
2022/11/23 00:59:48;;;;;;;3.45;1.33;;;8.30;99.90;;;;;;5099460;28;20425;-69
2022/11/23 01:02:13;;;;;;;2.90;1.27;;;8.30;99.90;;;;;;5087584;28;20422;-70
2022/11/23 01:04:39;;;;;;;3.20;1.10;;;8.30;99.90;;;;;;5085215;28;20805;-69
2022/11/23 01:07:04;;;;;;;3.73;1.07;;;8.50;99.90;;;;;;5091932;28;20420;-69
2022/11/23 01:09:30;;;;;;;3.57;0.90;;;8.40;99.90;;;;;;5090897;28;20577;-69
2022/11/23 01:11:55;;;;;;;3.90;1.00;;;8.40;99.90;;;;;;5098362;28;20420;-69
2022/11/23 01:14:22;;;;;;;3.80;0.90;;;8.40;99.90;;;;;;5097278;28;20398;-69
2022/11/23 01:16:47;;;;;;;3.30;0.90;;;8.40;99.90;;;;;;5093992;28;20497;-69
2022/11/23 01:19:15;;;;;;;2.63;1.00;;;8.40;99.90;;;;;;5082506;28;20899;-69
2022/11/23 01:21:41;;;;;;;2.13;0.90;;;8.40;99.90;;;;;;5088810;28;20399;-69
2022/11/23 01:24:10;;;;;;;4.47;1.10;;;8.40;99.90;;;;;;5079940;28;20395;-69
2022/11/23 01:26:36;;;;;;;3.60;1.20;;;8.40;99.90;;;;;;5078705;28;20464;-69
2022/11/23 01:29:01;;;;;;;2.20;0.90;;;8.40;99.90;;;;;;5081621;28;20458;-69
2022/11/23 01:31:27;;;;;;;3.90;1.10;;;8.40;99.90;;;;;;5079140;28;20419;-69
2022/11/23 01:33:55;;;;;;;3.58;1.08;;;8.40;99.90;;;;;;5078196;28;20402;-68
2022/11/23 01:36:22;;;;;;;5.05;1.33;;;8.40;99.90;;;;;;5080278;28;20413;-69
2022/11/23 01:38:49;;;;;;;4.90;1.10;;;8.40;99.90;;;;;;5084838;28;20398;-69
2022/11/23 01:41:18;;;;;;;3.25;1.02;;;8.40;99.90;;;;;;5084608;28;20402;-69
2022/11/23 01:43:43;;;;;;;5.55;1.70;;;8.30;99.90;;;;;;5076486;28;20787;-69
2022/11/23 01:46:10;;;;;;;5.93;1.17;;;8.30;99.90;;;;;;5077430;28;20409;-69
2022/11/23 01:48:55;;;;;;;5.10;1.33;;;8.30;99.90;;;;;;5061466;28;20881;-69
2022/11/23 01:51:23;;;;;;;3.60;1.10;;;8.40;99.90;;;;;;5079060;28;20410;-69
2022/11/23 01:53:52;;;;;;;2.78;0.90;;;8.40;99.90;;;;;;5077789;28;20418;-69
2022/11/23 01:56:25;;;;;;;3.85;1.60;;;8.20;99.90;;;;;;5079781;28;20409;-69
2022/11/23 01:58:55;;;;;;;5.38;1.40;;;8.30;99.90;;;;;;5080065;28;20392;-69
2022/11/23 02:01:21;;;;;;;4.50;1.38;;;8.20;99.90;;;;;;5074156;28;20402;-69
2022/11/23 02:03:47;;;;;;;3.05;1.00;;;8.30;99.90;;;;;;5078713;28;20406;-69
2022/11/23 02:06:17;;;;;;;4.35;1.50;;;8.30;99.90;;;;;;5075833;28;20862;-69
2022/11/23 02:08:43;;;;;;;3.57;1.40;;;8.20;99.90;;;;;;5078611;28;20404;-69
2022/11/23 02:11:11;;;;;;;3.30;1.10;;;8.20;99.90;;;;;;5062611;28;20743;-69
2022/11/23 02:13:37;;;;;;;2.92;1.35;;;8.30;99.90;;;;;;5071549;28;20406;-69
2022/11/23 02:16:03;;;;;;;3.75;1.20;;;8.30;99.90;;;;;;5081019;28;20403;-69
2022/11/23 02:18:31;;;;;;;5.10;1.60;;;8.30;99.90;;;;;;5075260;28;20403;-69
2022/11/23 02:20:59;;;;;;;4.97;1.70;;;8.30;99.90;;;;;;5076811;28;20892;-69
2022/11/23 02:24:18;;;;;;;3.47;0.90;;;8.30;99.90;;;;;;5076666;28;20510;-69
2022/11/23 02:26:44;;;;;;;3.80;1.05;;;8.40;99.90;;;;;;5027270;28;20453;-69
2022/11/23 02:29:19;;;;;;;3.90;1.20;;;8.30;99.90;;;;;;5021193;28;20679;-69
2022/11/23 02:31:44;;;;;;;2.53;1.10;;;8.30;99.90;;;;;;5058188;28;20407;-69
2022/11/23 02:34:10;;;;;;;3.77;1.10;;;8.30;99.90;;;;;;5090383;28;21053;-69
2022/11/23 02:36:46;;;;;;;4.57;1.20;;;8.40;99.90;;;;;;5078216;28;20484;-69
2022/11/23 02:39:17;;;;;;;2.92;1.10;;;8.50;99.90;;;;;;5084841;28;20452;-69
2022/11/23 02:41:49;;;;;;;4.05;1.20;;;8.40;99.90;;;;;;5087451;28;20887;-69
2022/11/23 02:44:50;;;;;;;4.32;1.13;;;8.40;99.90;;;;;;5074991;28;20424;-69
2022/11/23 02:47:15;;;;;;;3.83;1.65;;;8.30;99.90;;;;;;5085352;28;20402;-69
2022/11/23 02:49:44;;;;;;;4.40;1.37;;;8.30;99.90;;;;;;5089802;28;20806;-69
2022/11/23 02:52:10;;;;;;;3.83;1.23;;;8.50;99.90;;;;;;5080815;28;20754;-69
2022/11/23 02:54:35;;;;;;;3.00;1.00;;;8.50;99.90;;;;;;5081227;28;20427;-69
2022/11/23 02:57:01;;;;;;;3.20;0.90;;;8.40;99.90;;;;;;5079944;28;20746;-69
2022/11/23 02:59:26;;;;;;;5.60;1.45;;;8.40;99.90;;;;;;5080333;28;20412;-69
2022/11/23 03:01:52;;;;;;;3.20;1.20;;;8.50;99.90;;;;;;5079606;28;20810;-69
2022/11/23 03:04:18;;;;;;;4.50;1.60;;;8.50;99.90;;;;;;5081519;28;20409;-69
2022/11/23 03:06:43;;;;;;;4.27;1.20;;;8.50;99.90;;;;;;5081142;28;20881;-69
2022/11/23 03:09:09;;;;;;;2.90;0.73;;;8.30;99.90;;;;;;5081155;28;20405;-68
2022/11/23 03:11:35;;;;;;;3.72;1.17;;;8.20;99.90;;;;;;5077897;28;20414;-69
2022/11/23 03:14:01;;;;;;;4.80;1.60;;;8.10;99.90;;;;;;5083395;28;20406;-69
2022/11/23 03:16:26;;;;;;;5.78;1.58;;;8.20;99.90;;;;;;5081005;28;20815;-69
2022/11/23 03:18:52;;;;;;;3.47;1.00;;;8.10;99.90;;;;;;5085449;28;20777;-68
2022/11/23 03:21:17;;;;;;;6.90;1.00;;;8.10;99.90;;;;;;5082009;28;20403;-68
2022/11/23 03:23:43;;;;;;;4.80;1.03;;;8.20;99.90;;;;;;5091333;28;20406;-68
2022/11/23 03:26:08;;;;;;;2.13;1.07;;;8.20;99.90;;;;;;5083965;28;20403;-68
2022/11/23 03:28:34;;;;;;;2.35;0.82;;;8.20;99.90;;;;;;5086151;28;20449;-69
2022/11/23 03:31:00;;;;;;;6.05;1.20;;;8.00;99.90;;;;;;5077204;28;20975;-69
2022/11/23 03:33:25;;;;;;;4.20;1.10;;;8.10;99.90;;;;;;5082182;28;20953;-69
2022/11/23 03:35:51;;;;;;;5.10;1.20;;;8.00;99.90;;;;;;5076900;28;20422;-68
2022/11/23 03:38:16;;;;;;;5.40;1.53;;;7.90;99.90;;;;;;5086500;28;20908;-68
2022/11/23 03:40:45;;;;;;;5.20;1.40;;;7.80;99.90;;;;;;5083464;28;20400;-68
2022/11/23 03:43:12;;;;;;;3.93;1.50;;;7.80;99.90;;;;;;5079306;28;20384;-68
2022/11/23 03:45:37;;;;;;;5.65;1.40;;;7.80;99.90;;;;;;5075870;28;20460;-69
2022/11/23 03:48:03;;;;;;;4.63;1.50;;;7.60;99.90;;;;;;5084515;28;20388;-69
2022/11/23 03:50:29;;;;;;;3.63;1.30;;;7.60;99.90;;;;;;5076525;28;20483;-69
2022/11/23 03:52:55;;;;;;;4.18;1.23;;;7.50;99.90;;;;;;5075981;28;20490;-69
2022/11/23 03:55:20;;;;;;;6.05;1.17;;;7.60;99.90;;;;;;5082032;28;20952;-69
2022/11/23 03:57:49;;;;;;;4.00;1.00;;;7.40;99.90;;;;;;5082511;28;20410;-69
2022/11/23 04:00:15;;;;;;;3.30;1.08;;;7.20;99.90;;;;;;5077095;28;20406;-69
2022/11/23 04:02:42;;;;;;;3.92;1.27;;;7.00;99.90;;;;;;5078893;28;20443;-70
2022/11/23 04:05:08;;;;;;;4.70;1.35;;;7.00;99.90;;;;;;5084845;28;20906;-69
2022/11/23 04:07:33;;;;;;;3.83;1.15;;;6.90;99.90;;;;;;5080264;28;20391;-70
2022/11/23 04:09:59;;;;;;;5.70;1.33;;;6.70;99.90;;;;;;5085287;28;20436;-69
2022/11/23 04:12:25;;;;;;;2.97;1.50;;;6.60;99.90;;;;;;5087997;28;20453;-69
2022/11/23 04:14:51;;;;;;;2.40;1.27;;;6.60;99.90;;;;;;5080450;28;20466;-69
2022/11/23 04:17:16;;;;;;;4.00;1.30;;;6.60;99.90;;;;;;5080690;28;20879;-69
2022/11/23 04:19:42;;;;;;;4.03;1.27;;;6.50;99.90;;;;;;5086315;28;20413;-70
2022/11/23 04:22:08;;;;;;;4.10;1.52;;;6.40;99.90;;;;;;5075418;28;20874;-69
2022/11/23 04:24:33;;;;;;;5.00;1.10;;;6.30;99.90;;;;;;5090276;28;20390;-69
2022/11/23 04:26:59;;;;;;;5.10;1.20;;;6.30;99.90;;;;;;5091777;28;20443;-69
2022/11/23 04:29:24;;;;;;;6.70;1.83;;;6.20;99.90;;;;;;5090074;28;21675;-69
2022/11/23 04:31:50;;;;;;;6.07;1.27;;;6.30;99.90;;;;;;5085409;28;20419;-69
2022/11/23 04:34:16;;;;;;;3.80;1.30;;;6.20;99.90;;;;;;5070717;28;20386;-70
2022/11/23 04:36:41;;;;;;;3.50;1.00;;;6.20;99.90;;;;;;5091964;28;20386;-69
2022/11/23 04:39:07;;;;;;;6.00;1.70;;;6.20;99.90;;;;;;5088317;28;20866;-70
2022/11/23 04:41:33;;;;;;;5.40;1.40;;;6.20;99.90;;;;;;5081061;28;20386;-69
2022/11/23 04:43:58;;;;;;;4.68;1.42;;;6.40;99.90;;;;;;5082402;28;20759;-70
2022/11/23 04:46:24;;;;;;;5.80;1.50;;;6.30;99.90;;;;;;5091357;28;20401;-69
2022/11/23 04:48:49;;;;;;;5.07;2.00;;;6.30;99.90;;;;;;5091332;28;20420;-69
2022/11/23 04:51:15;;;;;;;3.37;1.50;;;6.20;99.90;;;;;;5091598;28;20737;-69
2022/11/23 04:53:41;;;;;;;6.40;1.77;;;6.20;99.90;;;;;;5089542;28;20381;-69
2022/11/23 04:56:08;;;;;;;5.70;1.53;;;6.00;99.90;;;;;;5090984;28;20732;-69
2022/11/23 04:58:35;;;;;;;3.77;1.50;;;5.90;99.90;;;;;;5090894;28;20473;-69
2022/11/23 05:01:01;;;;;;;2.67;1.23;;;5.80;99.90;;;;;;5083327;28;20879;-69
2022/11/23 05:03:26;;;;;;;5.22;1.65;;;5.70;99.90;;;;;;5090601;28;20397;-69
2022/11/23 05:05:52;;;;;;;4.15;1.67;;;5.60;99.90;;;;;;5090872;28;20455;-69
2022/11/23 05:08:17;;;;;;;4.70;1.60;;;5.50;99.90;;;;;;5090913;28;20382;-69
2022/11/23 05:10:43;;;;;;;5.18;1.60;;;5.60;99.90;;;;;;5091066;28;20864;-69
2022/11/23 05:13:08;;;;;;;5.93;2.17;;;5.40;99.90;;;;;;5090450;28;20415;-69
2022/11/23 05:15:34;;;;;;;6.33;1.57;;;5.40;99.90;;;;;;5090565;28;20394;-69
2022/11/23 05:18:02;;;;;;;3.47;1.60;;;5.40;99.90;;;;;;5090464;28;20789;-69
2022/11/23 05:20:27;;;;;;;4.60;1.33;;;5.30;99.90;;;;;;5072544;28;20774;-69
2022/11/23 05:22:53;;;;;;;2.20;1.33;;;5.30;99.90;;;;;;5090235;28;20400;-70
2022/11/23 05:25:19;;;;;;;5.83;1.70;;;5.20;99.90;;;;;;5090936;28;20390;-70
2022/11/23 05:27:44;;;;;;;4.90;1.80;;;5.20;99.90;;;;;;5090417;28;20481;-70
2022/11/23 05:30:10;;;;;;;4.40;1.73;;;5.10;99.90;;;;;;5091011;28;20813;-69
2022/11/23 05:32:36;;;;;;;3.45;1.60;;;5.10;99.90;;;;;;5090177;28;20409;-70
2022/11/23 05:35:01;;;;;;;3.15;1.60;;;5.00;99.90;;;;;;5091133;28;20883;-70
2022/11/23 05:37:27;;;;;;;6.80;2.47;;;5.00;99.90;;;;;;5090811;28;20898;-69
2022/11/23 05:39:52;;;;;;;4.30;1.88;;;5.00;99.90;;;;;;5081156;28;20945;-69
2022/11/23 05:42:18;;;;;;;6.80;1.85;;;4.90;99.90;;;;;;5070630;28;20406;-69
2022/11/23 05:44:43;;;;;;;7.10;2.00;;;4.90;99.90;;;;;;5069663;28;20399;-70
2022/11/23 05:47:09;;;;;;;4.40;2.20;;;4.90;99.90;;;;;;5070779;28;20436;-69
2022/11/23 05:49:35;;;;;;;5.70;2.00;;;4.70;99.90;;;;;;5070386;28;20436;-69
2022/11/23 05:52:00;;;;;;;3.73;1.70;;;4.70;99.90;;;;;;5070511;28;20458;-69
2022/11/23 05:54:25;;;;;;;5.30;2.00;;;4.60;99.90;;;;;;5069413;28;20387;-70
2022/11/23 05:56:51;;;;;;;5.30;2.35;;;4.60;99.90;;;;;;5070573;28;20375;-70
2022/11/23 05:59:16;;;;;;;3.00;1.70;;;4.60;99.90;;;;;;5070333;28;20882;-69
2022/11/23 06:01:42;;;;;;;7.20;2.40;;;4.60;99.90;;;;;;5070506;28;20937;-69
2022/11/23 06:04:08;;;;;;;5.90;2.40;;;4.50;99.90;;;;;;5069276;28;20863;-69
2022/11/23 06:06:33;;;;;;;3.97;2.10;;;4.60;99.90;;;;;;5070404;28;20384;-70
2022/11/23 06:08:59;;;;;;;4.13;2.50;;;4.50;99.90;;;;;;5070290;28;20376;-70
2022/11/23 06:11:24;;;;;;;5.03;2.70;;;4.40;99.90;;;;;;5070360;28;20399;-70
2022/11/23 06:13:50;;;;;;;6.07;3.07;;;4.30;99.90;;;;;;5069619;28;20505;-70
2022/11/23 06:16:15;;;;;;;5.77;3.27;;;4.30;99.90;;;;;;5070325;28;20383;-70
2022/11/23 06:18:41;;;;;;;3.60;2.70;;;4.30;99.90;;;;;;5070140;28;20417;-70
2022/11/23 06:21:06;;;;;;;5.40;2.67;;;4.40;99.90;;;;;;5077180;28;20450;-70
2022/11/23 06:23:32;;;;;;;3.97;2.40;;;4.20;99.90;;;;;;5077539;28;20804;-70
2022/11/23 06:26:01;;;;;;;6.65;2.85;;;4.20;99.90;;;;;;5079835;28;20872;-70
2022/11/23 06:28:27;;;;;;;3.60;2.30;;;4.20;99.90;;;;;;5089491;28;20381;-70
2022/11/23 06:30:54;;;;;;;7.10;2.50;;;4.20;99.90;;;;;;5081519;28;20459;-68
2022/11/23 06:33:19;;;;;;;5.78;2.50;;;4.20;99.90;;;;;;5087364;28;20382;-70
2022/11/23 06:35:56;;;;;;;4.32;2.65;;;4.20;99.90;;;;;;5073806;28;20472;-68
2022/11/23 06:38:22;;;;;;;5.82;2.80;;;4.20;99.90;;;;;;5079505;28;20376;-69
2022/11/23 06:40:48;;;;;;;3.40;2.20;;;4.20;99.90;;;;;;5088261;28;20745;-69
2022/11/23 06:43:13;;;;;;;3.20;1.83;;;4.10;99.90;;;;;;5090555;28;20423;-69
2022/11/23 06:45:39;;;;;;;6.43;2.40;;;4.20;99.90;;;;;;5077296;28;20948;-68
2022/11/23 06:48:05;;;;;;;3.30;2.00;;;4.20;99.90;;;;;;5086579;28;20417;-68
2022/11/23 06:50:30;;;;;;;6.20;3.10;;;4.20;99.90;;;;;;5089973;28;20721;-68
2022/11/23 06:52:56;;;;;;;5.50;2.60;;;4.20;99.90;;;;;;5089368;28;20401;-68
2022/11/23 06:55:25;;;;;;;4.30;2.30;;;4.10;99.90;;;;;;5070694;28;20448;-68
2022/11/23 06:57:51;;;;;;;7.10;2.90;;;4.10;99.90;;;;;;5069718;28;20380;-68
2022/11/23 07:00:17;;;;;;;4.30;2.50;;;4.00;99.90;;;;;;5086273;28;20400;-69
2022/11/23 07:02:43;;;;;;;3.00;1.80;;;4.00;99.90;;;;;;5082605;28;20967;-69
2022/11/23 07:05:09;;;;;;;4.20;2.30;;;4.00;99.90;;;;;;5082054;28;20841;-69
2022/11/23 07:07:35;;;;;;;5.10;1.90;;;4.10;99.90;;;;;;5081488;28;20381;-69
2022/11/23 07:10:00;;;;;;;5.50;2.60;;;4.00;99.90;;;;;;5086875;28;20409;-69
2022/11/23 07:12:26;;;;;;;5.77;2.40;;;4.10;99.90;;;;;;5076249;28;20406;-68
2022/11/23 07:14:51;;;;;;;5.50;2.20;;;4.20;99.90;;;;;;5082836;28;20398;-69
2022/11/23 07:17:17;;;;;;;3.90;2.50;;;4.00;99.90;;;;;;5079749;28;20926;-69
2022/11/23 07:19:43;;;;;;;5.50;2.70;;;3.90;99.90;;;;;;5090279;28;20413;-69
2022/11/23 07:22:08;;;;;;;4.70;2.85;;;3.90;99.90;;;;;;5084913;28;20390;-69
2022/11/23 07:24:34;;;;;;;3.93;2.40;;;3.90;99.90;;;;;;5092373;28;20393;-69
2022/11/23 07:27:00;;;;;;;4.20;2.30;;;4.10;99.90;;;;;;5093423;28;20382;-69
2022/11/23 07:29:25;;;;;;;4.50;2.45;;;3.90;99.90;;;;;;5086717;28;20913;-70
2022/11/23 07:31:51;;;;;;;4.38;2.40;;;3.80;99.90;;;;;;5064476;28;20418;-69
2022/11/23 07:34:17;;;;;;;5.90;2.72;;;3.80;99.90;;;;;;5079932;28;20411;-69
2022/11/23 07:36:42;;;;;;;5.38;2.25;;;3.90;99.90;;;;;;5085360;28;20399;-69
2022/11/23 07:39:08;;;;;;;4.82;2.50;;;3.90;99.90;;;;;;5078522;28;20486;-69
2022/11/23 07:41:33;;;;;;;3.72;2.33;;;4.00;99.90;;;;;;5082589;28;20429;-69
2022/11/23 07:43:59;;;;;;;3.67;2.65;;;3.90;99.90;;;;;;5079766;28;20396;-69
2022/11/23 07:46:25;;;;;;;6.60;2.95;;;3.90;99.90;;;;;;5079113;28;20526;-70
2022/11/23 07:48:50;;;;;;;4.57;2.60;;;4.30;99.90;;;;;;5083940;28;20402;-69
2022/11/23 07:51:18;;;;;;;4.35;2.90;;;4.30;99.90;;;;;;5079096;28;20490;-69
2022/11/23 07:53:44;;;;;;;5.03;2.63;;;4.40;99.90;;;;;;5083165;28;20471;-68
2022/11/23 07:56:10;;;;;;;4.70;2.08;;;4.30;99.90;;;;;;5081141;28;20402;-69
2022/11/23 07:58:36;;;;;;;5.88;2.47;;;4.40;99.90;;;;;;5075087;28;20408;-69
2022/11/23 08:01:01;;;;;;;4.75;2.30;;;4.50;99.90;;;;;;5078737;28;20406;-69
2022/11/23 08:03:27;;;;;;;5.18;2.50;;;4.50;99.90;;;;;;5068679;28;20406;-68
2022/11/23 08:05:52;;;;;;;3.13;2.10;;;4.40;99.90;;;;;;5087987;28;20389;-68
2022/11/23 08:08:18;;;;;;;5.67;2.20;;;4.50;99.90;;;;;;5086661;28;20466;-68
2022/11/23 08:10:43;;;;;;;2.50;1.80;;;4.60;99.90;;;;;;5064736;28;20404;-68
2022/11/23 08:13:09;;;;;;;5.93;1.80;;;4.70;99.90;;;;;;5083234;28;20492;-68
2022/11/23 08:15:35;;;;;;;4.60;1.90;;;4.80;99.90;;;;;;5082571;28;20494;-68
2022/11/23 08:18:02;;;;;;;4.70;2.08;;;4.80;99.90;;;;;;5082954;28;20401;-68
2022/11/23 08:20:29;;;;;;;3.88;1.90;;;4.80;99.90;;;;;;5085612;28;20399;-67
2022/11/23 08:22:55;;;;;;;6.15;2.35;;;4.90;99.90;;;;;;5084943;28;20831;-68
2022/11/23 08:25:22;;;;;;;3.88;1.90;;;5.00;99.90;;;;;;5055202;28;20387;-68
2022/11/23 08:27:52;;;;;;;3.97;2.20;;;5.20;99.90;;;;;;5081980;28;20418;-68
2022/11/23 08:30:18;;;;;;;3.63;2.20;;;5.20;99.90;;;;;;5085234;28;20420;-68
2022/11/23 08:32:43;;;;;;;4.78;2.20;;;5.30;99.90;;;;;;5072253;28;20408;-68
2022/11/23 08:35:09;;;;;;;5.38;2.08;;;5.40;99.90;;;;;;5071499;28;20882;-68
2022/11/23 08:37:34;;;;;;;4.03;2.13;;;5.50;99.90;;;;;;5071667;28;20386;-68
2022/11/23 08:40:00;;;;;;;1.92;1.60;;;5.50;99.90;;;;;;5071600;28;20392;-68
2022/11/23 08:42:25;;;;;;;2.50;2.08;;;5.50;99.90;;;;;;5071367;28;20379;-68
2022/11/23 08:44:51;;;;;;;4.60;2.10;;;5.50;99.90;;;;;;5070038;28;20873;-68
2022/11/23 08:47:18;;;;;;;2.77;1.60;;;5.60;99.90;;;;;;5071497;28;20380;-68
2022/11/23 08:49:43;;;;;;;2.95;1.80;;;5.60;99.90;;;;;;5071455;28;20391;-68
2022/11/23 08:52:09;;;;;;;4.65;2.00;;;5.80;99.90;;;;;;5071648;28;20404;-68
2022/11/23 08:54:35;;;;;;;5.00;2.03;;;5.90;99.90;;;;;;5070433;28;20387;-68
2022/11/23 08:57:00;;;;;;;3.20;1.80;;;6.00;99.90;;;;;;5071417;28;20846;-68
2022/11/23 08:59:25;;;;;;;3.30;2.00;;;6.10;99.90;;;;;;5071279;28;20437;-68
2022/11/23 09:01:51;;;;;;;5.80;1.90;;;6.20;99.90;;;;;;5071079;28;20384;-68
2022/11/23 09:04:17;;;;;;;3.50;1.90;;;6.30;99.90;;;;;;5052521;28;20439;-68
2022/11/23 09:06:42;;;;;;;3.87;1.50;;;6.40;99.90;;;;;;5071209;28;20490;-68
2022/11/23 09:09:08;;;;;;;3.53;1.60;;;6.50;99.90;;;;;;5071228;28;20482;-68
2022/11/23 09:11:33;;;;;;;2.55;1.70;;;6.60;99.90;;;;;;5071142;28;20461;-68
2022/11/23 09:13:59;;;;;;;2.90;1.30;;;6.70;99.90;;;;;;5075605;28;20387;-68
2022/11/23 09:16:24;;;;;;;2.10;1.60;;;6.70;99.90;;;;;;5078642;28;20410;-68
2022/11/23 09:18:54;;;;;;;2.13;1.30;;;6.80;99.90;;;;;;5078815;28;20422;-68
2022/11/23 09:21:20;;;;;;;3.53;1.00;;;6.90;99.90;;;;;;5078651;28;20433;-68
2022/11/23 09:23:45;;;;;;;4.90;1.50;;;6.90;99.90;;;;;;5074022;28;20442;-68
2022/11/23 09:26:11;;;;;;;2.80;1.30;;;7.00;99.90;;;;;;5078805;28;20417;-68
2022/11/23 09:28:36;;;;;;;2.00;1.20;;;7.10;99.90;;;;;;5077776;28;20415;-68
2022/11/23 09:31:03;;;;;;;2.50;1.03;;;7.30;99.90;;;;;;5075407;28;20886;-68
2022/11/23 09:33:29;;;;;;;3.45;1.30;;;7.30;99.90;;;;;;5077984;28;20406;-68
2022/11/23 09:35:58;;;;;;;3.63;1.30;;;7.40;99.90;;;;;;5079960;28;20395;-68
2022/11/23 09:38:23;;;;;;;1.60;0.90;;;7.40;99.90;;;;;;5078131;28;20426;-69
2022/11/23 09:40:57;;;;;;;2.83;1.10;;;7.60;99.90;;;;;;5080143;28;20399;-68
2022/11/23 09:43:40;;;;;;;2.67;1.20;;;7.60;99.90;;;;;;5087764;28;20396;-68
2022/11/23 09:46:20;;;;;;;2.05;1.10;;;7.80;99.90;;;;;;5086046;28;20387;-68
2022/11/23 09:49:08;;;;;;;2.50;1.30;;;7.90;99.90;;;;;;5086019;28;20433;-68
2022/11/23 09:51:37;;;;;;;1.70;1.20;;;8.00;99.90;;;;;;5070326;28;20412;-68
2022/11/23 09:54:11;;;;;;;2.25;0.90;;;8.10;99.90;;;;;;5069595;28;20384;-68
2022/11/23 09:56:40;;;;;;;2.13;0.95;;;8.20;99.90;;;;;;5090691;28;20480;-68
2022/11/23 09:59:17;;;;;;;3.20;1.35;;;8.30;99.90;;;;;;5075810;28;20888;-68
2022/11/23 10:01:43;;;;;;;2.60;1.52;;;8.30;99.90;;;;;;5070357;28;20376;-68
2022/11/23 10:04:17;;;;;;;1.40;1.10;;;8.50;99.90;;;;;;5082366;28;20382;-68
2022/11/23 10:06:43;;;;;;;1.55;0.90;;;8.60;99.90;;;;;;5089230;28;20406;-68
2022/11/23 10:09:37;;;;;;;2.97;1.10;;;8.70;99.90;;;;;;5080395;28;20390;-68
2022/11/23 10:12:12;;;;;;;3.20;1.10;;;8.80;99.90;;;;;;5079343;28;20454;-68
2022/11/23 10:14:56;;;;;;;3.13;1.80;;;8.90;99.90;;;;;;5076983;28;20477;-68
2022/11/23 10:17:59;;;;;;;4.65;2.30;;;9.10;99.90;;;;;;5087688;28;20436;-68
2022/11/23 10:20:38;;;;;;;4.55;2.08;;;9.20;99.90;;;;;;5082395;28;20444;-68
2022/11/23 10:23:16;;;;;;;3.90;1.40;;;9.30;99.90;;;;;;5084233;28;20394;-68
2022/11/23 10:25:48;;;;;;;1.88;1.05;;;9.50;99.90;;;;;;5081361;28;20424;-68
2022/11/23 10:28:17;;;;;;;3.10;1.00;;;9.50;99.90;;;;;;5074774;28;20455;-68
2022/11/23 10:30:48;;;;;;;2.95;0.80;;;9.60;99.90;;;;;;5082125;28;20775;-68
2022/11/23 10:33:25;;;;;;;1.80;0.90;;;9.70;99.90;;;;;;5075393;28;20521;-67
2022/11/23 10:35:51;;;;;;;2.15;1.02;;;9.80;99.90;;;;;;5073268;28;20463;-69
2022/11/23 10:38:17;;;;;;;1.30;0.90;;;10.00;99.90;;;;;;5085437;28;20474;-68
2022/11/23 10:41:11;;;;;;;2.33;1.00;;;10.00;99.90;;;;;;5082034;28;20406;-68
2022/11/23 10:43:45;;;;;;;1.90;0.70;;;10.20;99.90;;;;;;5076816;28;20974;-68
2022/11/23 10:46:39;;;;;;;2.50;0.82;;;10.50;99.10;;;;;;5082764;28;20431;-68
2022/11/23 10:49:12;;;;;;;1.42;0.70;;;10.60;97.90;;;;;;5063669;28;20398;-68
2022/11/23 10:51:39;;;;;;;1.55;0.90;;;10.80;98.00;;;;;;5077291;28;20430;-68
2022/11/23 10:54:23;;;;;;;1.50;0.90;;;11.10;95.80;;;;;;5077052;28;20385;-68
2022/11/23 10:56:50;;;;;;;2.92;1.10;;;11.30;94.30;;;;;;5092432;28;20786;-68
2022/11/23 10:59:27;;;;;;;0.80;0.70;;;11.40;93.30;;;;;;5074997;28;20854;-68
2022/11/23 11:02:18;;;;;;;1.30;0.70;;;11.70;90.60;;;;;;5083046;28;20411;-68
2022/11/23 11:04:44;;;;;;;2.10;0.70;;;12.10;86.70;;;;;;5086938;28;20405;-69
2022/11/23 11:07:22;;;;;;;1.10;0.80;;;12.60;79.40;;;;;;5076378;28;20392;-69
2022/11/23 11:10:30;;;;;;;1.67;0.90;;;13.20;74.90;;;;;;5075323;28;20393;-69
2022/11/23 11:12:55;;;;;;;1.50;0.60;;;14.30;74.50;;;;;;5092666;28;20429;-69
2022/11/23 11:15:21;;;;;;;0.90;0.50;;;14.00;72.40;;;;;;5093130;28;20370;-69
2022/11/23 11:17:57;;;;;;;2.50;0.68;;;13.80;70.40;;;;;;5091849;28;20410;-69
2022/11/23 11:20:27;;;;;;;1.20;0.90;;;13.60;70.60;;;;;;5093544;28;20431;-69
2022/11/23 11:23:02;;;;;;;1.25;0.80;;;14.10;67.80;;;;;;5092714;28;20422;-69
2022/11/23 11:25:31;;;;;;;1.80;0.90;;;14.20;67.20;;;;;;5093562;28;20461;-69
2022/11/23 11:27:58;;;;;;;1.30;0.80;;;14.10;64.50;;;;;;5093456;28;20741;-69
2022/11/23 11:30:27;;;;;;;1.38;0.80;;;14.10;67.10;;;;;;5093404;28;20374;-69
2022/11/23 11:33:04;;;;;;;1.50;0.70;;;15.10;61.40;;;;;;5092473;28;20912;-69
2022/11/23 11:35:37;;;;;;;1.20;0.80;;;15.10;58.10;;;;;;5093317;28;20539;-69
2022/11/23 11:38:24;;;;;;;2.92;1.00;;;15.00;57.50;;;;;;5093414;28;20386;-70
2022/11/23 11:40:51;;;;;;;1.45;0.85;;;14.70;63.90;;;;;;5075630;28;20390;-69
2022/11/23 11:43:28;;;;;;;1.60;0.80;;;14.70;63.10;;;;;;5075925;28;20390;-69
2022/11/23 11:45:57;;;;;;;1.92;0.90;;;14.40;58.20;;;;;;5085563;28;20409;-69
2022/11/23 11:48:36;;;;;;;1.67;0.90;;;14.50;61.60;;;;;;5079651;28;20454;-70
2022/11/23 11:51:16;;;;;;;1.00;0.80;;;14.20;55.70;;;;;;5081267;28;20378;-69
2022/11/23 11:54:02;;;;;;;0.90;0.63;;;14.50;56.00;;;;;;5083726;28;20388;-70
2022/11/23 11:56:40;;;;;;;2.00;0.70;;;14.40;55.30;;;;;;5072666;28;20806;-70
2022/11/23 11:59:29;;;;;;;1.60;0.50;;;14.40;55.80;;;;;;5076872;28;20966;-69
2022/11/23 12:02:34;;;;;;;1.55;0.65;;;14.40;54.50;;;;;;5084242;28;20498;-70
2022/11/23 12:05:23;;;;;;;1.67;0.80;;;14.70;57.20;;;;;;5070159;28;20405;-70
2022/11/23 12:08:16;;;;;;;1.58;0.60;;;15.00;58.70;;;;;;5079584;28;20410;-68
2022/11/23 12:10:45;;;;;;;1.52;1.00;;;15.10;58.80;;;;;;5062754;28;20409;-68
2022/11/23 12:13:32;;;;;;;0.90;0.70;;;14.80;59.00;;;;;;5076890;28;20811;-71
2022/11/23 12:16:36;;;;;;;1.10;0.60;;;14.90;60.30;;;;;;5087951;28;20366;-70
2022/11/23 12:19:25;;;;;;;0.80;0.68;;;15.10;58.40;;;;;;5060875;28;20384;-71
2022/11/23 12:22:21;;;;;;;1.20;0.70;;;15.10;56.80;;;;;;5072455;28;20471;-71
2022/11/23 12:25:10;;;;;;;1.00;0.80;;;14.40;58.20;;;;;;5084612;28;20385;-70
2022/11/23 12:27:56;;;;;;;0.93;0.82;;;13.40;59.50;;;;;;5083604;28;20457;-70
2022/11/23 12:30:43;;;;;;;1.50;0.80;;;12.90;62.50;;;;;;5086289;28;20477;-70
2022/11/23 12:33:35;;;;;;;0.80;0.60;;;12.80;63.70;;;;;;5077971;28;20453;-70
2022/11/23 12:36:15;;;;;;;1.40;0.90;;;12.20;67.30;;;;;;5087182;28;20800;-68
2022/11/23 12:38:53;;;;;;;2.47;1.30;;;12.00;68.10;;;;;;5077187;28;20399;-69
2022/11/23 12:41:33;;;;;;;2.90;1.40;;;11.80;72.30;;;;;;5085159;28;20488;-69
2022/11/23 12:44:38;;;;;;;1.50;1.40;;;11.80;71.40;;;;;;5083014;28;20455;-70
2022/11/23 12:47:37;;;;;;;1.93;1.17;;;11.90;70.80;;;;;;5061876;28;20853;-69
2022/11/23 12:50:13;;;;;;;1.08;0.90;;;12.20;69.70;;;;;;5085713;28;20428;-69
2022/11/23 12:52:57;;;;;;;1.00;0.75;;;12.40;69.90;;;;;;5086329;28;20398;-69
2022/11/23 12:55:43;;;;;;;1.70;0.70;;;12.80;70.70;;;;;;5078395;28;20484;-69
2022/11/23 12:58:11;;;;;;;1.20;0.80;;;12.80;70.30;;;;;;5080336;28;20405;-69
2022/11/23 13:00:40;;;;;;;0.90;0.80;;;12.80;71.80;;;;;;5086918;28;20397;-69
2022/11/23 13:03:39;;;;;;;2.25;0.82;;;12.30;71.30;;;;;;5083994;28;20398;-69
2022/11/23 13:06:20;;;;;;;3.03;0.98;;;12.20;74.50;;;;;;5088768;28;20416;-70
2022/11/23 13:09:02;;;;;;;2.22;0.90;;;12.10;75.40;;;;;;5077333;28;20410;-70